Time;durP1;ratioP1;P1;durP2;ratioP2;P2;SDS_P1;SDS_P2;PMS_P1;PMS_P2;Temp;Humidity;BMP_temperature;BMP_pressure;BME280_temperature;BME280_humidity;BME280_pressure;Samples;Min_cycle;Max_cycle;Signal;HPM_P1;HPM_P2
2022/06/15 00:01:32;;;;;;;4.70;3.10;;;;;;;;;;5041921;28;20174;-85
2022/06/15 00:04:00;;;;;;;3.60;2.87;;;;;;;;;;5043805;28;20632;-86
2022/06/15 00:06:29;;;;;;;4.23;3.37;;;14.70;99.90;;;;;;5043040;28;20241;-86
2022/06/15 00:08:57;;;;;;;3.97;3.20;;;14.60;99.90;;;;;;5045400;28;20238;-85
2022/06/15 00:11:26;;;;;;;4.70;3.00;;;14.50;99.90;;;;;;5044594;28;20206;-85
2022/06/15 00:13:54;;;;;;;4.07;3.00;;;14.60;99.90;;;;;;5041630;28;20182;-85
2022/06/15 00:16:20;;;;;;;4.67;3.37;;;14.40;99.90;;;;;;5041991;28;20556;-85
2022/06/15 00:18:47;;;;;;;4.43;3.33;;;;;;;;;;5042668;28;20181;-85
2022/06/15 00:21:15;;;;;;;4.27;3.03;;;14.30;99.90;;;;;;5041415;28;20180;-85
2022/06/15 00:23:41;;;;;;;5.67;3.47;;;14.20;99.90;;;;;;5043174;28;20178;-85
2022/06/15 00:26:07;;;;;;;6.57;3.53;;;;;;;;;;5047789;28;20205;-85
2022/06/15 00:28:34;;;;;;;4.43;2.83;;;14.20;99.90;;;;;;5046441;28;20182;-85
2022/06/15 00:31:01;;;;;;;8.37;3.20;;;14.10;99.90;;;;;;5046249;28;20202;-85
2022/06/15 00:33:27;;;;;;;4.90;3.57;;;;;;;;;;5044415;28;20186;-85
2022/06/15 00:36:03;;;;;;;5.67;3.33;;;14.10;99.90;;;;;;5044674;28;20182;-85
2022/06/15 00:38:32;;;;;;;7.40;3.27;;;14.10;99.90;;;;;;5045070;28;20197;-85
2022/06/15 00:40:59;;;;;;;8.20;3.70;;;14.10;99.90;;;;;;5040744;28;20618;-85
2022/06/15 00:43:38;;;;;;;6.70;3.47;;;14.10;99.90;;;;;;5041858;28;20198;-85
2022/06/15 00:46:25;;;;;;;4.23;3.13;;;13.80;99.90;;;;;;5039644;28;20170;-85
2022/06/15 00:48:59;;;;;;;4.87;3.47;;;14.00;99.90;;;;;;5039101;28;20656;-84
2022/06/15 00:51:26;;;;;;;5.00;3.50;;;14.00;99.90;;;;;;5039591;28;20185;-85
2022/06/15 00:53:53;;;;;;;6.07;3.30;;;13.80;99.90;;;;;;5038716;28;20209;-84
2022/06/15 00:56:20;;;;;;;7.37;3.13;;;;;;;;;;5040102;28;20197;-84
2022/06/15 00:58:51;;;;;;;6.30;3.57;;;13.80;99.90;;;;;;5046301;28;20178;-85
2022/06/15 01:01:17;;;;;;;3.93;3.00;;;;;;;;;;5047135;28;20496;-85
2022/06/15 01:03:46;;;;;;;6.53;3.13;;;13.70;99.90;;;;;;5044991;28;20186;-85
2022/06/15 01:06:31;;;;;;;5.00;3.50;;;13.70;99.90;;;;;;5044587;28;20182;-85
2022/06/15 01:09:24;;;;;;;5.70;3.47;;;13.60;99.90;;;;;;5044779;28;20217;-85
2022/06/15 01:12:02;;;;;;;4.90;3.33;;;13.60;99.90;;;;;;5045997;28;20186;-85
2022/06/15 01:14:43;;;;;;;7.00;3.77;;;13.60;99.90;;;;;;5048177;28;20177;-85
2022/06/15 01:17:30;;;;;;;10.03;3.97;;;13.60;99.90;;;;;;5046317;28;20209;-85
2022/06/15 01:20:01;;;;;;;4.27;3.57;;;13.40;99.90;;;;;;5045506;28;20227;-86
2022/06/15 01:22:27;;;;;;;5.70;3.70;;;;;;;;;;5045387;28;20178;-85
2022/06/15 01:25:15;;;;;;;4.80;3.57;;;13.50;99.90;;;;;;5043600;28;20186;-85
2022/06/15 01:28:10;;;;;;;6.80;4.00;;;13.40;99.90;;;;;;5044381;28;20186;-85
2022/06/15 01:30:46;;;;;;;7.33;3.77;;;;;;;;;;5044307;28;20205;-86
2022/06/15 01:33:27;;;;;;;5.27;4.37;;;13.40;99.90;;;;;;5044576;28;20635;-86
2022/06/15 01:36:05;;;;;;;6.43;3.93;;;;;;;;;;5047027;28;20209;-86
2022/06/15 01:38:46;;;;;;;7.43;4.50;;;13.30;99.90;;;;;;5057406;28;20194;-85
2022/06/15 01:41:18;;;;;;;6.87;4.63;;;;;;;;;;5055395;28;20170;-85
2022/06/15 01:43:59;;;;;;;5.50;4.10;;;13.20;99.90;;;;;;5044808;28;20637;-85
2022/06/15 01:46:27;;;;;;;8.50;4.70;;;13.20;99.90;;;;;;5042289;28;20162;-85
2022/06/15 01:48:55;;;;;;;6.27;4.47;;;13.10;99.90;;;;;;5042365;28;20202;-85
2022/06/15 01:51:31;;;;;;;5.43;4.37;;;13.10;99.90;;;;;;5043589;28;20174;-85
2022/06/15 01:54:34;;;;;;;8.57;4.57;;;13.00;99.90;;;;;;5043629;28;20201;-86
2022/06/15 01:57:03;;;;;;;9.00;5.23;;;13.10;99.90;;;;;;5043762;28;20236;-85
2022/06/15 01:59:29;;;;;;;9.80;5.13;;;;;;;;;;5046267;28;20202;-84
2022/06/15 02:02:13;;;;;;;10.03;4.83;;;13.00;99.90;;;;;;5044997;28;20637;-85
2022/06/15 02:04:57;;;;;;;8.87;4.70;;;13.10;99.90;;;;;;5043785;28;20623;-85
2022/06/15 02:08:03;;;;;;;8.97;4.77;;;12.90;99.90;;;;;;5042043;28;20204;-85
2022/06/15 02:10:54;;;;;;;7.90;4.93;;;12.90;99.90;;;;;;5013708;28;20303;-85
2022/06/15 02:13:37;;;;;;;7.73;4.67;;;12.90;99.90;;;;;;5040768;28;20196;-85
2022/06/15 02:16:12;;;;;;;11.20;5.33;;;12.80;99.90;;;;;;5042506;28;20170;-85
2022/06/15 02:18:42;;;;;;;9.17;4.77;;;12.80;99.90;;;;;;5043733;28;20188;-85
2022/06/15 02:21:13;;;;;;;9.37;5.23;;;12.80;99.90;;;;;;5042827;28;20213;-85
2022/06/15 02:23:41;;;;;;;5.50;4.23;;;12.80;99.90;;;;;;5042640;28;20178;-85
2022/06/15 02:26:07;;;;;;;7.57;4.47;;;;;;;;;;5042756;28;20171;-85
2022/06/15 02:28:38;;;;;;;7.47;5.80;;;12.70;99.90;;;;;;5042650;28;20247;-85
2022/06/15 02:31:04;;;;;;;6.10;4.43;;;12.70;99.90;;;;;;5044096;28;20570;-85
2022/06/15 02:33:32;;;;;;;9.47;5.40;;;12.60;99.90;;;;;;5042859;28;20178;-85
2022/06/15 02:36:00;;;;;;;7.47;4.90;;;12.30;99.90;;;;;;5043554;28;20541;-85
2022/06/15 02:38:28;;;;;;;6.37;4.80;;;12.60;99.90;;;;;;5041913;28;20233;-85
2022/06/15 02:40:54;;;;;;;5.90;4.93;;;12.50;99.90;;;;;;5042259;28;20198;-85
2022/06/15 02:43:24;;;;;;;7.37;4.77;;;12.60;99.90;;;;;;5040493;28;20632;-85
2022/06/15 02:45:51;;;;;;;5.03;4.13;;;12.60;99.90;;;;;;5042054;28;20220;-85
2022/06/15 02:48:17;;;;;;;6.97;5.03;;;12.70;99.90;;;;;;5040365;28;20193;-85
2022/06/15 02:51:08;;;;;;;7.43;4.83;;;12.70;99.90;;;;;;5041302;28;20609;-85
2022/06/15 02:53:34;;;;;;;9.83;5.00;;;12.60;99.90;;;;;;5041785;28;20190;-85
2022/06/15 02:56:02;;;;;;;7.63;5.40;;;12.70;99.90;;;;;;5042360;28;20178;-85
2022/06/15 02:58:37;;;;;;;7.43;4.67;;;12.60;99.90;;;;;;5039627;28;20198;-85
2022/06/15 03:01:03;;;;;;;6.93;4.83;;;12.70;99.90;;;;;;5036841;28;20192;-85
2022/06/15 03:03:31;;;;;;;6.30;4.90;;;12.70;99.90;;;;;;5036430;28;20648;-84
2022/06/15 03:05:57;;;;;;;7.80;4.73;;;12.60;99.90;;;;;;5036715;28;20170;-84
2022/06/15 03:08:23;;;;;;;6.80;5.13;;;12.30;99.90;;;;;;5037200;28;20320;-85
2022/06/15 03:10:52;;;;;;;6.00;4.70;;;12.30;99.90;;;;;;5042116;28;20242;-85
2022/06/15 03:13:19;;;;;;;6.03;4.37;;;;;;;;;;5044935;28;20184;-84
2022/06/15 03:15:45;;;;;;;8.17;5.23;;;12.20;99.90;;;;;;5054345;28;20178;-84
2022/06/15 03:18:11;;;;;;;6.77;4.90;;;;;;;;;;5054828;28;20229;-84
2022/06/15 03:20:37;;;;;;;5.43;4.60;;;;;;;;;;5044232;28;20664;-84
2022/06/15 03:23:06;;;;;;;5.47;4.40;;;;;;;;;;5040400;28;20182;-86
2022/06/15 03:25:33;;;;;;;7.37;4.53;;;12.30;99.90;;;;;;5041254;28;20187;-86
2022/06/15 03:27:59;;;;;;;5.53;4.57;;;;;;;;;;5042190;28;20193;-85
2022/06/15 03:30:25;;;;;;;6.60;4.20;;;;;;;;;;5040436;28;20683;-86
2022/06/15 03:32:51;;;;;;;10.73;5.40;;;;;;;;;;5040566;28;20649;-85
2022/06/15 03:35:17;;;;;;;13.67;6.90;;;;;;;;;;5042874;28;20652;-85
2022/06/15 03:37:43;;;;;;;10.30;6.33;;;;;;;;;;5042067;28;20210;-85
2022/06/15 03:40:11;;;;;;;6.03;4.60;;;12.00;99.90;;;;;;5042830;28;20201;-85
2022/06/15 03:42:40;;;;;;;8.10;4.60;;;12.00;99.90;;;;;;5041321;28;20273;-85
2022/06/15 03:45:08;;;;;;;5.97;4.47;;;12.20;99.90;;;;;;5041340;28;20299;-86
2022/06/15 03:47:34;;;;;;;6.03;4.43;;;;;;;;;;5041330;28;20186;-85
2022/06/15 03:50:03;;;;;;;6.13;4.40;;;;;;;;;;5041807;28;20210;-86
2022/06/15 03:52:29;;;;;;;6.67;4.53;;;12.50;99.90;;;;;;5043882;28;20216;-86
2022/06/15 03:54:55;;;;;;;7.33;4.47;;;;;;;;;;5042030;28;20178;-86
2022/06/15 03:57:22;;;;;;;9.87;4.40;;;12.40;99.90;;;;;;5041471;28;20217;-87
2022/06/15 03:59:48;;;;;;;6.60;4.53;;;;;;;;;;5040129;28;20202;-85
2022/06/15 04:02:14;;;;;;;6.17;4.13;;;;;;;;;;5041435;28;20666;-84
2022/06/15 04:04:40;;;;;;;5.63;4.90;;;;;;;;;;5041613;28;20178;-86
2022/06/15 04:08:34;;;;;;;6.93;4.70;;;;;;;;;;5041564;28;20182;-87
2022/06/15 04:09:56;;;;;;;6.30;3.80;;;;;;;;;;5043108;28;20223;-86
2022/06/15 04:12:26;;;;;;;7.67;4.63;;;;;;;;;;5042056;28;20267;-86
2022/06/15 04:14:52;;;;;;;9.90;4.37;;;;;;;;;;5045817;28;20178;-86
2022/06/15 04:17:18;;;;;;;6.47;3.83;;;;;;;;;;5042629;28;20205;-86
2022/06/15 04:20:31;;;;;;;6.80;4.27;;;;;;;;;;5042352;28;20202;-86
2022/06/15 04:22:30;;;;;;;7.37;4.40;;;;;;;;;;5042366;28;20190;-85
2022/06/15 04:24:56;;;;;;;7.73;4.47;;;;;;;;;;5042653;28;20166;-86
2022/06/15 04:27:22;;;;;;;8.83;4.20;;;;;;;;;;5043539;28;20235;-86
2022/06/15 04:29:48;;;;;;;4.80;4.30;;;;;;;;;;5041587;28;20262;-86
2022/06/15 04:32:14;;;;;;;5.57;4.87;;;;;;;;;;5041575;28;20236;-86
2022/06/15 04:34:43;;;;;;;5.27;4.40;;;12.70;99.90;;;;;;5041599;28;20182;-86
2022/06/15 04:37:09;;;;;;;5.03;3.93;;;;;;;;;;5043047;28;20555;-86
2022/06/15 04:39:35;;;;;;;5.97;4.17;;;;;;;;;;5044083;28;20194;-85
2022/06/15 04:42:01;;;;;;;6.80;4.00;;;12.90;99.90;;;;;;5042947;28;20676;-86
2022/06/15 04:44:27;;;;;;;6.93;3.50;;;;;;;;;;5044231;28;20201;-86
2022/06/15 04:46:53;;;;;;;7.37;3.70;;;;;;;;;;5044673;28;20191;-85
2022/06/15 04:49:19;;;;;;;6.53;4.40;;;;;;;;;;5047536;28;20198;-85
2022/06/15 04:51:45;;;;;;;14.00;4.20;;;;;;;;;;5050790;28;20206;-85
2022/06/15 04:54:11;;;;;;;4.50;3.60;;;;;;;;;;5047598;28;20189;-85
2022/06/15 04:56:38;;;;;;;6.27;3.93;;;12.90;99.90;;;;;;5043329;28;20288;-85
2022/06/15 04:59:04;;;;;;;7.10;4.17;;;;;;;;;;5040888;28;20640;-85
2022/06/15 05:01:30;;;;;;;4.43;4.03;;;;;;;;;;5041064;28;20273;-85
2022/06/15 05:03:56;;;;;;;6.53;4.33;;;;;;;;;;5041475;28;20202;-85
2022/06/15 05:06:22;;;;;;;5.00;3.63;;;;;;;;;;5040458;28;20611;-85
2022/06/15 05:08:48;;;;;;;5.70;4.00;;;13.10;99.90;;;;;;5038498;28;20194;-86
2022/06/15 05:11:14;;;;;;;6.07;3.90;;;;;;;;;;5043443;28;20182;-83
2022/06/15 05:13:40;;;;;;;7.73;4.23;;;;;;;;;;5042443;28;20186;-85
2022/06/15 05:16:05;;;;;;;5.40;3.87;;;13.20;99.90;;;;;;5043284;28;20232;-85
2022/06/15 05:18:33;;;;;;;4.27;3.87;;;;;;;;;;5039461;28;20233;-86
2022/06/15 05:21:00;;;;;;;6.27;3.90;;;13.50;99.90;;;;;;5039566;28;20182;-86
2022/06/15 05:23:26;;;;;;;6.70;4.63;;;13.40;99.90;;;;;;5039806;28;20647;-85
2022/06/15 05:25:53;;;;;;;5.40;3.70;;;;;;;;;;5043470;28;20202;-84
2022/06/15 05:28:18;;;;;;;5.03;4.00;;;13.60;99.90;;;;;;5044267;28;20240;-85
2022/06/15 05:30:44;;;;;;;7.43;4.00;;;;;;;;;;5043882;28;20269;-84
2022/06/15 05:33:11;;;;;;;7.67;3.50;;;13.80;99.90;;;;;;5043488;28;20182;-85
2022/06/15 05:35:37;;;;;;;6.20;3.70;;;14.00;99.90;;;;;;5044672;28;20177;-83
2022/06/15 05:38:03;;;;;;;4.63;4.10;;;13.90;99.90;;;;;;5044744;28;20297;-83
2022/06/15 05:40:29;;;;;;;4.10;3.53;;;;;;;;;;5044294;28;20214;-84
2022/06/15 05:42:55;;;;;;;4.13;3.67;;;14.10;99.90;;;;;;5043597;28;20269;-83
2022/06/15 05:45:21;;;;;;;4.83;3.50;;;;;;;;;;5042974;28;20212;-86
2022/06/15 05:47:47;;;;;;;5.17;3.30;;;14.30;99.90;;;;;;5044254;28;20170;-85
2022/06/15 05:50:13;;;;;;;5.10;3.33;;;14.50;99.90;;;;;;5041954;28;20201;-86
2022/06/15 05:52:39;;;;;;;5.23;3.40;;;;;;;;;;5042191;28;20178;-86
2022/06/15 05:55:06;;;;;;;4.87;3.30;;;14.60;99.90;;;;;;5042544;28;20184;-86
2022/06/15 05:57:31;;;;;;;4.87;2.97;;;14.60;99.90;;;;;;5042287;28;20202;-85
2022/06/15 05:59:58;;;;;;;4.20;3.50;;;;;;;;;;5042846;28;20201;-86
2022/06/15 06:02:27;;;;;;;4.67;2.93;;;15.20;99.90;;;;;;5044360;28;20620;-86
2022/06/15 06:04:53;;;;;;;5.77;3.17;;;;;;;;;;5041677;28;20190;-85
2022/06/15 06:07:21;;;;;;;4.37;2.80;;;15.30;99.90;;;;;;5042679;28;20186;-85
2022/06/15 06:09:47;;;;;;;5.33;3.20;;;;;;;;;;5043862;28;20206;-85
2022/06/15 06:12:14;;;;;;;5.17;2.80;;;;;;;;;;5042659;28;20259;-85
2022/06/15 06:14:40;;;;;;;4.93;2.67;;;;;;;;;;5042655;28;20186;-86
2022/06/15 06:17:07;;;;;;;4.37;2.57;;;16.10;99.90;;;;;;5045247;28;20213;-86
2022/06/15 06:19:33;;;;;;;5.40;2.80;;;15.90;99.90;;;;;;5043372;28;20199;-86
2022/06/15 06:21:59;;;;;;;3.67;2.43;;;;;;;;;;5042760;28;20183;-86
2022/06/15 06:24:25;;;;;;;4.43;2.80;;;16.50;99.90;;;;;;5044938;28;20656;-86
2022/06/15 06:26:58;;;;;;;4.33;2.80;;;16.60;99.90;;;;;;5045479;28;20195;-86
2022/06/15 06:29:24;;;;;;;3.17;2.33;;;;;;;;;;5049394;28;20225;-85
2022/06/15 06:31:50;;;;;;;4.37;2.83;;;16.70;99.90;;;;;;5055182;28;20178;-85
2022/06/15 06:34:16;;;;;;;5.43;2.57;;;;;;;;;;5046157;28;20758;-85
2022/06/15 06:36:45;;;;;;;5.87;2.30;;;17.20;99.90;;;;;;5043524;28;20343;-85
2022/06/15 06:39:25;;;;;;;6.73;2.60;;;17.40;99.90;;;;;;5041591;28;20193;-85
2022/06/15 06:41:51;;;;;;;4.70;3.00;;;17.30;99.90;;;;;;5041694;28;20174;-85
2022/06/15 06:44:17;;;;;;;4.57;2.73;;;17.30;99.90;;;;;;5044478;28;20171;-86
2022/06/15 06:46:46;;;;;;;3.73;2.37;;;17.60;99.90;;;;;;5042517;28;20636;-86
2022/06/15 06:49:12;;;;;;;6.03;2.90;;;17.90;99.90;;;;;;5040243;28;20202;-85
2022/06/15 06:51:39;;;;;;;2.57;2.30;;;18.00;99.90;;;;;;5042462;28;20183;-85
2022/06/15 06:54:07;;;;;;;3.80;2.47;;;18.20;99.90;;;;;;5039165;28;20268;-85
2022/06/15 06:56:34;;;;;;;3.13;2.03;;;;;;;;;;5039521;28;20191;-86
2022/06/15 06:59:00;;;;;;;3.80;2.37;;;18.60;99.90;;;;;;5037958;28;20195;-85
2022/06/15 07:01:26;;;;;;;3.47;2.57;;;;;;;;;;5038617;28;20185;-86
2022/06/15 07:03:52;;;;;;;3.07;2.20;;;;;;;;;;5039561;28;20175;-85
2022/06/15 07:06:18;;;;;;;4.87;2.43;;;19.10;99.90;;;;;;5038064;28;20250;-85
2022/06/15 07:08:44;;;;;;;3.80;2.57;;;;;;;;;;5038768;28;20197;-86
2022/06/15 07:11:18;;;;;;;4.57;2.70;;;19.00;99.90;;;;;;5040328;28;20179;-86
2022/06/15 07:13:44;;;;;;;4.80;2.77;;;19.40;99.90;;;;;;5038484;28;20176;-86
2022/06/15 07:16:13;;;;;;;4.73;2.53;;;19.30;99.90;;;;;;5037065;28;20601;-85
2022/06/15 07:18:38;;;;;;;4.47;2.70;;;19.70;99.90;;;;;;5038128;28;20206;-85
2022/06/15 07:21:13;;;;;;;5.20;2.70;;;19.70;99.90;;;;;;5038004;28;20592;-85
2022/06/15 07:23:40;;;;;;;9.30;3.03;;;19.60;99.90;;;;;;5037655;28;20597;-85
2022/06/15 07:26:10;;;;;;;3.47;2.23;;;19.90;99.90;;;;;;5045634;28;20258;-86
2022/06/15 07:28:36;;;;;;;4.20;2.77;;;;;;;;;;5037712;28;20211;-85
2022/06/15 07:31:02;;;;;;;4.63;2.53;;;20.00;99.90;;;;;;5035627;28;20180;-85
2022/06/15 07:33:28;;;;;;;5.27;2.70;;;;;;;;;;5035442;28;20174;-86
2022/06/15 07:35:54;;;;;;;5.53;2.43;;;19.90;99.90;;;;;;5034406;28;20179;-85
2022/06/15 07:38:20;;;;;;;3.10;2.53;;;;;;;;;;5035527;28;20548;-86
2022/06/15 07:40:47;;;;;;;4.63;3.10;;;20.20;99.90;;;;;;5042382;28;20222;-86
2022/06/15 07:43:13;;;;;;;4.47;2.60;;;20.60;99.90;;;;;;5048226;28;20181;-84
2022/06/15 07:45:39;;;;;;;2.93;2.50;;;;;;;;;;5051121;28;20184;-84
2022/06/15 07:50:49;;;;;;;4.63;2.60;;;20.70;99.90;;;;;;5037345;28;20594;-85
2022/06/15 07:53:15;;;;;;;5.40;3.10;;;21.30;99.90;;;;;;5035403;28;20184;-84
2022/06/15 07:55:43;;;;;;;4.20;2.83;;;21.00;99.90;;;;;;5036472;28;20174;-85
2022/06/15 07:58:10;;;;;;;3.37;2.60;;;21.30;99.90;;;;;;5034222;28;20205;-85
2022/06/15 08:00:38;;;;;;;5.67;2.70;;;21.30;99.90;;;;;;5034578;28;20202;-85
2022/06/15 08:03:04;;;;;;;3.80;3.27;;;21.80;99.90;;;;;;5040551;28;20663;-84
2022/06/15 08:05:35;;;;;;;2.87;2.50;;;21.80;99.90;;;;;;5041920;28;20182;-84
2022/06/15 08:08:03;;;;;;;9.10;2.90;;;21.80;99.90;;;;;;5042278;28;20178;-85
2022/06/15 08:10:29;;;;;;;7.90;2.80;;;21.90;99.90;;;;;;5042196;28;20287;-85
2022/06/15 08:12:55;;;;;;;2.97;2.50;;;21.90;99.90;;;;;;5043926;28;20198;-85
2022/06/15 08:15:22;;;;;;;7.67;2.90;;;21.90;99.90;;;;;;5043106;28;20232;-85
2022/06/15 08:17:58;;;;;;;13.10;2.97;;;21.90;99.90;;;;;;5023845;28;20552;-84
2022/06/15 08:20:36;;;;;;;11.83;3.93;;;21.90;99.90;;;;;;5037468;28;20233;-84
2022/06/15 08:23:11;;;;;;;5.97;3.20;;;22.00;99.90;;;;;;5038290;28;20192;-84
2022/06/15 08:25:43;;;;;;;4.27;3.03;;;22.10;99.90;;;;;;5037743;28;20166;-85
2022/06/15 08:28:09;;;;;;;6.23;3.20;;;22.10;99.90;;;;;;5040014;28;20159;-84
2022/06/15 08:30:36;;;;;;;8.47;3.00;;;22.00;99.90;;;;;;5038491;28;20229;-84
2022/06/15 08:33:03;;;;;;;7.77;3.00;;;21.90;99.90;;;;;;5039045;28;20240;-84
2022/06/15 08:35:29;;;;;;;5.87;2.63;;;21.90;99.90;;;;;;5041685;28;20186;-84
2022/06/15 08:37:56;;;;;;;9.07;3.00;;;;;;;;;;5042019;28;20210;-86
2022/06/15 08:40:22;;;;;;;4.63;2.90;;;21.80;99.90;;;;;;5039731;28;20201;-86
2022/06/15 08:42:59;;;;;;;8.60;3.57;;;21.80;99.90;;;;;;5040745;28;20621;-86
2022/06/15 08:45:38;;;;;;;6.50;3.30;;;21.80;99.90;;;;;;5040948;28;20197;-84
2022/06/15 08:48:29;;;;;;;3.37;2.90;;;21.90;99.90;;;;;;5046085;28;20205;-83
2022/06/15 08:50:59;;;;;;;5.67;2.93;;;22.20;99.90;;;;;;5044275;28;20536;-83
2022/06/15 08:53:47;;;;;;;5.13;3.07;;;22.50;99.90;;;;;;5046533;28;20182;-84
2022/06/15 08:56:40;;;;;;;15.97;3.70;;;22.70;99.90;;;;;;5046133;28;20655;-85
2022/06/15 08:59:27;;;;;;;8.10;3.10;;;23.20;99.90;;;;;;5046720;28;20213;-84
2022/06/15 09:02:15;;;;;;;5.40;2.90;;;23.30;99.90;;;;;;5047346;28;20190;-84
2022/06/15 09:05:10;;;;;;;10.17;2.80;;;23.50;99.90;;;;;;5054664;28;20182;-84
2022/06/15 09:07:55;;;;;;;7.07;2.77;;;23.80;99.90;;;;;;5033497;28;20203;-84
2022/06/15 09:10:32;;;;;;;4.47;2.83;;;23.90;99.90;;;;;;5043667;28;20206;-83
2022/06/15 09:13:25;;;;;;;3.50;2.40;;;24.40;99.90;;;;;;5044309;28;20164;-83
2022/06/15 09:15:59;;;;;;;3.77;2.70;;;24.50;99.90;;;;;;5043561;28;20538;-83
2022/06/15 09:18:29;;;;;;;4.93;2.97;;;24.60;99.90;;;;;;5042271;28;20215;-84
2022/06/15 09:21:00;;;;;;;4.07;2.53;;;24.80;99.90;;;;;;5041601;28;20248;-84
2022/06/15 09:23:36;;;;;;;7.97;2.50;;;24.80;99.90;;;;;;5043619;28;20546;-84
2022/06/15 09:26:09;;;;;;;5.20;2.80;;;24.90;99.90;;;;;;5043313;28;20301;-84
2022/06/15 09:28:47;;;;;;;9.43;2.70;;;25.40;99.90;;;;;;5043829;28;20179;-84
2022/06/15 09:31:20;;;;;;;6.37;2.23;;;25.40;99.90;;;;;;5042315;28;20182;-83
2022/06/15 09:34:01;;;;;;;5.03;2.37;;;25.60;99.90;;;;;;5043847;28;20178;-84
2022/06/15 09:36:35;;;;;;;4.63;2.13;;;25.80;99.90;;;;;;5042473;28;20186;-84
2022/06/15 09:39:02;;;;;;;5.03;2.53;;;26.20;99.90;;;;;;5041663;28;20203;-84
2022/06/15 09:41:39;;;;;;;7.57;2.20;;;26.40;99.90;;;;;;5043210;28;20246;-84
2022/06/15 09:44:33;;;;;;;4.40;2.20;;;26.40;99.90;;;;;;5044056;28;20226;-84
2022/06/15 09:47:16;;;;;;;4.90;2.07;;;26.70;99.90;;;;;;5040037;28;20166;-83
2022/06/15 09:50:05;;;;;;;5.50;2.23;;;27.00;99.90;;;;;;5037262;28;20703;-83
2022/06/15 09:53:01;;;;;;;6.20;2.30;;;27.10;99.90;;;;;;5037585;28;20227;-83
2022/06/15 09:55:30;;;;;;;3.67;2.07;;;27.20;99.90;;;;;;5048676;28;20156;-85
2022/06/15 09:57:56;;;;;;;3.30;2.00;;;27.10;99.90;;;;;;5048649;28;20206;-83
2022/06/15 10:00:22;;;;;;;4.50;1.93;;;27.10;99.90;;;;;;5043304;28;20198;-83
2022/06/15 10:02:55;;;;;;;4.63;2.00;;;27.20;99.90;;;;;;5039051;28;20168;-84
2022/06/15 10:05:29;;;;;;;3.70;2.27;;;27.40;99.90;;;;;;5037643;28;20205;-82
2022/06/15 10:07:57;;;;;;;5.53;1.97;;;27.50;99.90;;;;;;5039190;28;20160;-84
2022/06/15 10:10:30;;;;;;;5.47;1.90;;;26.90;99.90;;;;;;5037262;28;20215;-83
2022/06/15 10:13:17;;;;;;;4.07;1.90;;;26.80;99.90;;;;;;5037366;28;20526;-84
2022/06/15 10:15:43;;;;;;;4.23;1.87;;;;;;;;;;5026407;28;20252;-84
2022/06/15 10:18:30;;;;;;;2.23;1.80;;;26.70;99.90;;;;;;5046514;28;20611;-84
2022/06/15 10:21:08;;;;;;;3.73;1.83;;;26.60;99.90;;;;;;5044349;28;20230;-84
2022/06/15 10:23:47;;;;;;;7.47;2.33;;;26.60;99.90;;;;;;5047632;28;20242;-82
2022/06/15 10:26:45;;;;;;;4.40;2.03;;;26.70;99.90;;;;;;5047790;28;20265;-81
2022/06/15 10:29:20;;;;;;;2.20;1.90;;;26.20;99.80;;;;;;5040874;28;20711;-81
2022/06/15 10:32:16;;;;;;;2.73;1.90;;;26.10;99.80;;;;;;5042428;28;20560;-84
2022/06/15 10:34:42;;;;;;;8.57;2.17;;;25.60;99.80;;;;;;5041136;28;20187;-83
2022/06/15 10:37:18;;;;;;;3.57;2.23;;;25.50;99.50;;;;;;5042692;28;20738;-83
2022/06/15 10:39:48;;;;;;;3.23;1.90;;;25.50;99.90;;;;;;5041139;28;20675;-82
2022/06/15 10:42:24;;;;;;;2.17;1.80;;;25.60;99.90;;;;;;5039773;28;20649;-82
2022/06/15 10:44:56;;;;;;;3.27;2.30;;;26.30;99.30;;;;;;5041187;28;20176;-82
2022/06/15 10:47:53;;;;;;;1.90;1.60;;;26.30;99.70;;;;;;5043507;28;20257;-83
2022/06/15 10:50:34;;;;;;;2.00;1.80;;;26.70;99.10;;;;;;5043232;28;20206;-82
2022/06/15 10:53:02;;;;;;;2.63;2.07;;;27.10;99.20;;;;;;5046732;28;20185;-82
2022/06/15 11:04:21;;;;;;;5.13;1.83;;;28.00;99.10;;;;;;5041780;28;20211;-80
2022/06/15 11:06:49;;;;;;;3.53;2.00;;;28.40;97.30;;;;;;5039992;28;20216;-81
2022/06/15 11:09:25;;;;;;;2.77;1.97;;;28.70;98.00;;;;;;5039775;28;20257;-82
2022/06/15 11:11:52;;;;;;;3.13;2.07;;;28.90;94.80;;;;;;5040682;28;20185;-85
2022/06/15 11:14:42;;;;;;;3.03;2.00;;;28.90;92.20;;;;;;5040212;28;20698;-81
2022/06/15 11:20:43;;;;;;;3.50;2.00;;;29.00;96.10;;;;;;5042538;28;20212;-83
2022/06/15 11:23:49;;;;;;;6.10;1.63;;;29.20;91.80;;;;;;5039646;28;20175;-83
2022/06/15 11:29:28;;;;;;;3.93;2.03;;;29.60;93.90;;;;;;5042643;28;20272;-83
2022/06/15 11:31:58;;;;;;;4.20;1.80;;;29.70;93.80;;;;;;5046648;28;20173;-83
2022/06/15 11:34:29;;;;;;;5.07;1.90;;;29.90;92.00;;;;;;5048834;28;20175;-81
2022/06/15 11:37:03;;;;;;;2.17;1.83;;;30.20;90.60;;;;;;5050461;28;20221;-82
2022/06/15 11:39:55;;;;;;;3.73;2.20;;;30.30;98.30;;;;;;5049640;28;20258;-82
2022/06/15 11:42:21;;;;;;;4.40;1.93;;;30.10;89.30;;;;;;5048863;28;20186;-81
2022/06/15 11:44:47;;;;;;;5.53;2.63;;;29.70;89.80;;;;;;5041033;28;20657;-82
2022/06/15 11:47:50;;;;;;;3.43;2.80;;;29.50;91.50;;;;;;5038819;28;20257;-81
2022/06/15 11:50:31;;;;;;;2.90;2.23;;;29.50;87.00;;;;;;5038218;28;20202;-82
2022/06/15 11:53:19;;;;;;;4.23;2.60;;;29.40;88.10;;;;;;5039291;28;20155;-80
2022/06/15 11:56:00;;;;;;;1.90;1.70;;;29.90;92.00;;;;;;5037496;28;20624;-81
2022/06/15 11:58:50;;;;;;;3.63;1.73;;;29.90;92.20;;;;;;5036761;28;20193;-81
2022/06/15 12:01:26;;;;;;;2.90;2.00;;;30.10;82.60;;;;;;5034637;28;20166;-81
2022/06/15 12:03:52;;;;;;;2.97;1.80;;;30.00;83.60;;;;;;5035166;28;20272;-82
2022/06/15 12:06:28;;;;;;;4.50;1.90;;;30.10;79.40;;;;;;5041969;28;20208;-83
2022/06/15 12:08:54;;;;;;;3.43;2.10;;;30.40;72.90;;;;;;5039833;28;20595;-83
2022/06/15 12:14:56;;;;;;;3.20;2.00;;;30.40;78.60;;;;;;5039433;28;20184;-82
2022/06/15 12:17:42;;;;;;;4.13;1.80;;;30.40;72.80;;;;;;5036024;28;20210;-83
2022/06/15 12:20:18;;;;;;;2.97;1.90;;;30.70;73.60;;;;;;4996372;28;20211;-84
2022/06/15 12:23:14;;;;;;;4.23;1.50;;;30.70;68.60;;;;;;5037951;28;20182;-83
2022/06/15 12:26:00;;;;;;;2.60;1.83;;;30.90;78.40;;;;;;5042726;28;20167;-84
2022/06/15 12:28:50;;;;;;;2.87;1.70;;;31.20;70.00;;;;;;5045749;28;20184;-84
2022/06/15 12:31:26;;;;;;;2.17;1.43;;;31.30;67.60;;;;;;5045212;28;20172;-83
2022/06/15 12:34:22;;;;;;;2.67;1.70;;;31.50;71.10;;;;;;5045099;28;20184;-84
2022/06/15 12:37:14;;;;;;;2.03;1.70;;;31.60;68.80;;;;;;5050021;28;20157;-83
2022/06/15 12:39:52;;;;;;;2.00;1.80;;;31.60;65.20;;;;;;5045053;28;20201;-84
2022/06/15 12:42:18;;;;;;;4.23;1.80;;;31.60;74.40;;;;;;5045011;28;20195;-83
2022/06/15 12:44:55;;;;;;;1.80;1.53;;;30.90;68.40;;;;;;5044202;28;20253;-84
2022/06/15 12:47:24;;;;;;;2.07;1.87;;;30.60;68.30;;;;;;5044826;28;20166;-83
2022/06/15 12:50:23;;;;;;;3.13;1.60;;;31.00;72.60;;;;;;5045229;28;20191;-83
2022/06/15 12:53:15;;;;;;;4.40;2.00;;;30.80;70.10;;;;;;5045409;28;20173;-83
2022/06/15 12:55:52;;;;;;;4.23;1.77;;;30.80;69.50;;;;;;5044449;28;20176;-85
2022/06/15 12:58:26;;;;;;;3.70;1.60;;;30.70;66.90;;;;;;5044700;28;20202;-83
2022/06/15 13:01:07;;;;;;;3.63;2.03;;;30.80;68.50;;;;;;5044046;28;20704;-85
2022/06/15 13:03:33;;;;;;;2.30;1.60;;;31.00;65.90;;;;;;5045676;28;20270;-83
2022/06/15 13:06:25;;;;;;;3.20;2.07;;;31.30;68.80;;;;;;5045426;28;20564;-85
2022/06/15 13:09:18;;;;;;;2.33;1.80;;;30.90;65.30;;;;;;5045135;28;20243;-85
2022/06/15 13:12:02;;;;;;;1.80;1.57;;;30.90;65.90;;;;;;5052435;28;20177;-83
2022/06/15 13:14:43;;;;;;;3.10;1.97;;;30.90;67.10;;;;;;5051201;28;20208;-84
2022/06/15 13:17:22;;;;;;;3.67;1.70;;;31.20;75.50;;;;;;5043241;28;20206;-84
2022/06/15 13:19:51;;;;;;;3.13;1.80;;;31.10;65.00;;;;;;5044557;28;20664;-85
2022/06/15 13:22:23;;;;;;;2.47;1.70;;;30.80;64.30;;;;;;5043447;28;20178;-84
2022/06/15 13:25:03;;;;;;;4.60;1.93;;;30.50;70.00;;;;;;5045516;28;20262;-83
2022/06/15 13:28:02;;;;;;;2.17;1.87;;;30.70;66.00;;;;;;5045186;28;20255;-84
2022/06/15 13:30:31;;;;;;;2.90;2.03;;;30.90;68.10;;;;;;5022907;28;20301;-84
2022/06/15 13:33:02;;;;;;;1.83;1.70;;;31.40;69.40;;;;;;5045653;28;20179;-84
2022/06/15 13:35:41;;;;;;;2.33;1.90;;;31.40;69.10;;;;;;5044560;28;20179;-83
2022/06/15 13:38:22;;;;;;;2.17;1.70;;;30.80;69.90;;;;;;5045985;28;20202;-83
2022/06/15 13:40:54;;;;;;;3.23;1.80;;;30.80;65.90;;;;;;5044741;28;20190;-83
2022/06/15 13:43:24;;;;;;;2.47;1.90;;;30.90;68.00;;;;;;5046232;28;20178;-84
2022/06/15 13:45:58;;;;;;;2.53;1.53;;;31.20;70.70;;;;;;5044965;28;20170;-83
2022/06/15 13:48:30;;;;;;;10.23;1.87;;;31.30;62.80;;;;;;5043241;28;20257;-83
2022/06/15 13:51:01;;;;;;;1.93;1.60;;;31.10;66.10;;;;;;5043894;28;20574;-83
2022/06/15 13:53:51;;;;;;;3.27;1.87;;;31.10;67.50;;;;;;5044477;28;20175;-84
2022/06/15 13:56:38;;;;;;;3.00;2.00;;;31.00;66.90;;;;;;5043522;28;20171;-84
2022/06/15 13:59:35;;;;;;;4.10;2.20;;;30.60;68.10;;;;;;5040390;28;20206;-83
2022/06/15 14:02:06;;;;;;;4.33;2.10;;;30.60;65.90;;;;;;5042814;28;20172;-84